Time;durP1;ratioP1;P1;durP2;ratioP2;P2;SDS_P1;SDS_P2;PMS_P1;PMS_P2;Temp;Humidity;BMP_temperature;BMP_pressure;BME280_temperature;BME280_humidity;BME280_pressure;Samples;Min_cycle;Max_cycle;Signal;HPM_P1;HPM_P2
2021/08/03 00:02:07;;;;;;;1.20;1.20;;;24.10;61.70;;;;;;5019398;28;20037;-33
2021/08/03 00:04:41;;;;;;;0.95;0.95;;;24.00;61.70;;;;;;5002867;28;20029;-33
2021/08/03 00:07:11;;;;;;;1.10;1.10;;;24.10;61.80;;;;;;5016719;28;20052;-33
2021/08/03 00:09:40;;;;;;;2.35;1.30;;;24.00;61.90;;;;;;5015201;28;20120;-33
2021/08/03 00:12:12;;;;;;;1.10;1.05;;;24.00;62.00;;;;;;5011055;28;20069;-33
2021/08/03 00:14:51;;;;;;;0.98;0.98;;;24.00;62.20;;;;;;5023349;28;20033;-32
2021/08/03 00:17:18;;;;;;;1.23;1.23;;;24.00;62.10;;;;;;5016951;28;20025;-32
2021/08/03 00:19:45;;;;;;;0.98;0.98;;;24.00;62.20;;;;;;5018903;28;20033;-28
2021/08/03 00:22:10;;;;;;;0.90;0.90;;;24.00;62.50;;;;;;5016630;28;20851;-32
2021/08/03 00:24:36;;;;;;;0.80;0.80;;;24.00;62.50;;;;;;5021069;28;20029;-32
2021/08/03 00:27:02;;;;;;;0.93;0.93;;;24.00;62.50;;;;;;5020847;28;20396;-31
2021/08/03 00:29:28;;;;;;;1.00;1.00;;;23.90;62.50;;;;;;5015350;28;20046;-31
2021/08/03 00:31:54;;;;;;;0.90;0.90;;;24.00;62.50;;;;;;5019147;28;20022;-32
2021/08/03 00:34:20;;;;;;;0.90;0.90;;;24.00;62.60;;;;;;5018210;28;20033;-32
2021/08/03 00:36:45;;;;;;;1.00;1.00;;;24.00;62.60;;;;;;5003575;28;20493;-32
2021/08/03 00:39:11;;;;;;;1.00;1.00;;;24.00;62.80;;;;;;5016526;28;20041;-32
2021/08/03 00:42:03;;;;;;;1.00;1.00;;;23.90;62.50;;;;;;5020616;28;20009;-34
2021/08/03 00:44:45;;;;;;;0.77;0.77;;;23.90;62.50;;;;;;5015836;28;20086;-32
2021/08/03 00:47:11;;;;;;;0.90;0.90;;;23.90;62.60;;;;;;5018207;28;20033;-32
2021/08/03 00:49:37;;;;;;;1.00;1.00;;;23.90;62.80;;;;;;5015096;28;20049;-33
2021/08/03 00:52:03;;;;;;;1.02;1.02;;;23.90;63.90;;;;;;5017063;28;20025;-32
2021/08/03 00:54:29;;;;;;;1.00;1.00;;;23.90;62.80;;;;;;5016123;28;20029;-33
2021/08/03 00:56:54;;;;;;;1.05;1.00;;;23.90;62.60;;;;;;5021784;28;20025;-33
2021/08/03 00:59:20;;;;;;;1.00;1.00;;;23.90;62.80;;;;;;5019403;28;20091;-33
2021/08/03 01:01:45;;;;;;;0.88;0.88;;;23.90;62.70;;;;;;5020538;28;20399;-32
2021/08/03 01:04:14;;;;;;;1.15;1.15;;;23.90;62.60;;;;;;5018717;28;20156;-33
2021/08/03 01:06:43;;;;;;;1.02;1.02;;;23.90;62.70;;;;;;5013867;28;20057;-33
2021/08/03 01:09:17;;;;;;;1.00;1.00;;;23.80;62.80;;;;;;5000099;28;20128;-32
2021/08/03 01:11:53;;;;;;;0.82;0.82;;;23.80;62.90;;;;;;4991475;28;20034;-42
2021/08/03 01:14:24;;;;;;;0.90;0.90;;;23.90;62.80;;;;;;5004107;28;20124;-40
2021/08/03 01:17:01;;;;;;;1.20;1.20;;;23.80;62.90;;;;;;4998866;28;20026;-40
2021/08/03 01:19:42;;;;;;;0.77;0.77;;;23.80;62.80;;;;;;4994339;28;20496;-40
2021/08/03 01:22:39;;;;;;;1.20;1.20;;;23.80;62.90;;;;;;5014469;28;20516;-42
2021/08/03 01:25:44;;;;;;;1.10;1.10;;;23.80;62.80;;;;;;5014264;28;20087;-42
2021/08/03 01:28:26;;;;;;;0.93;0.93;;;23.80;62.80;;;;;;5017411;28;20112;-41
2021/08/03 01:31:02;;;;;;;0.90;0.90;;;23.80;63.00;;;;;;5000373;28;20072;-40
2021/08/03 01:33:30;;;;;;;0.80;0.80;;;23.80;62.70;;;;;;4998801;28;20021;-38
2021/08/03 01:35:56;;;;;;;0.90;0.90;;;23.80;62.90;;;;;;5020021;28;20045;-41
2021/08/03 01:38:22;;;;;;;0.90;0.90;;;23.80;62.80;;;;;;5004488;28;20570;-40
2021/08/03 01:40:49;;;;;;;1.10;1.10;;;23.80;62.70;;;;;;4999486;28;20125;-32
2021/08/03 01:43:14;;;;;;;2.58;0.93;;;23.80;62.80;;;;;;4987081;28;20397;-42
2021/08/03 01:45:40;;;;;;;1.00;1.00;;;23.80;62.70;;;;;;5000636;28;20029;-40
2021/08/03 01:48:06;;;;;;;0.90;0.90;;;23.80;62.70;;;;;;4985880;28;20033;-42
2021/08/03 01:50:32;;;;;;;0.90;0.90;;;23.80;62.70;;;;;;4995324;28;20049;-37
2021/08/03 01:52:57;;;;;;;0.98;0.98;;;23.80;63.20;;;;;;5000813;28;20883;-40
2021/08/03 01:55:23;;;;;;;0.95;0.95;;;23.80;62.80;;;;;;4999274;28;20037;-40
2021/08/03 01:57:49;;;;;;;0.80;0.80;;;23.80;62.50;;;;;;5002732;28;20117;-39
2021/08/03 02:00:14;;;;;;;0.93;0.93;;;23.80;63.40;;;;;;4997460;28;20117;-41
2021/08/03 02:02:40;;;;;;;1.20;1.20;;;23.80;62.80;;;;;;5015831;28;20030;-35
2021/08/03 02:05:06;;;;;;;1.02;1.02;;;23.80;62.70;;;;;;5001671;28;20949;-39
2021/08/03 02:07:31;;;;;;;0.88;0.88;;;23.80;62.80;;;;;;5020994;28;20080;-38
2021/08/03 02:09:57;;;;;;;1.00;1.00;;;23.80;62.70;;;;;;5001161;28;20045;-41
2021/08/03 02:12:22;;;;;;;0.90;0.90;;;23.80;62.60;;;;;;4995328;28;20034;-39
2021/08/03 02:14:48;;;;;;;0.98;0.98;;;23.80;63.50;;;;;;5000324;28;20066;-40
2021/08/03 02:17:18;;;;;;;1.00;1.00;;;23.80;62.70;;;;;;5001754;28;20021;-42
2021/08/03 02:19:43;;;;;;;0.80;0.80;;;23.80;62.70;;;;;;5017566;28;20038;-37
2021/08/03 02:22:10;;;;;;;1.00;1.00;;;23.80;62.90;;;;;;4996905;28;20030;-40
2021/08/03 02:24:35;;;;;;;0.90;0.90;;;23.80;63.60;;;;;;5014926;28;20038;-39
2021/08/03 02:27:01;;;;;;;0.95;0.95;;;23.80;62.70;;;;;;5019649;28;20030;-37
2021/08/03 02:29:26;;;;;;;0.77;0.77;;;23.80;62.60;;;;;;5022090;28;20045;-41
2021/08/03 02:31:58;;;;;;;0.90;0.90;;;23.80;62.60;;;;;;5022702;28;20407;-36
2021/08/03 02:34:31;;;;;;;0.82;0.82;;;23.80;62.50;;;;;;5005991;28;20522;-38
2021/08/03 02:37:00;;;;;;;0.88;0.88;;;23.80;62.50;;;;;;4993868;28;20047;-42
2021/08/03 02:39:26;;;;;;;0.80;0.80;;;23.80;62.50;;;;;;5003401;28;20111;-42
2021/08/03 02:41:52;;;;;;;0.68;0.68;;;23.80;62.50;;;;;;4995796;28;20076;-42
2021/08/03 02:44:18;;;;;;;0.88;0.88;;;23.80;62.60;;;;;;5022248;28;20033;-42
2021/08/03 02:46:45;;;;;;;0.80;0.80;;;23.70;62.50;;;;;;5004579;28;20546;-42
2021/08/03 02:49:14;;;;;;;1.08;1.08;;;23.70;62.40;;;;;;4999671;28;20063;-42
2021/08/03 02:51:40;;;;;;;0.80;0.80;;;23.70;63.20;;;;;;5002312;28;20538;-42
2021/08/03 02:54:18;;;;;;;0.90;0.90;;;23.80;62.50;;;;;;5017560;28;20033;-42
2021/08/03 02:56:47;;;;;;;0.90;0.90;;;23.70;62.40;;;;;;5021625;28;20037;-42
2021/08/03 02:59:13;;;;;;;0.90;0.90;;;23.80;62.50;;;;;;4994116;28;20381;-42
2021/08/03 03:01:40;;;;;;;0.82;0.82;;;23.70;62.30;;;;;;5007238;28;20041;-42
2021/08/03 03:04:15;;;;;;;1.00;1.00;;;23.70;62.40;;;;;;5017572;28;20044;-42
2021/08/03 03:06:40;;;;;;;0.80;0.80;;;23.70;62.40;;;;;;5002125;28;20033;-42
2021/08/03 03:09:06;;;;;;;0.90;0.90;;;23.70;62.40;;;;;;5000778;28;21385;-42
2021/08/03 03:11:31;;;;;;;0.93;0.93;;;23.70;62.40;;;;;;4998008;28;20064;-43
2021/08/03 03:13:58;;;;;;;0.60;0.60;;;23.80;62.50;;;;;;5022132;28;20108;-40
2021/08/03 03:16:25;;;;;;;0.70;0.70;;;23.80;62.50;;;;;;5021600;28;20044;-33
2021/08/03 03:18:51;;;;;;;0.80;0.80;;;23.70;62.40;;;;;;5004038;28;20026;-41
2021/08/03 03:21:18;;;;;;;1.33;0.90;;;23.70;63.20;;;;;;4999961;28;20451;-32
2021/08/03 03:23:44;;;;;;;0.70;0.70;;;23.80;62.10;;;;;;5020722;28;20033;-37
2021/08/03 03:26:09;;;;;;;0.75;0.75;;;23.70;62.20;;;;;;5002874;28;20025;-42
2021/08/03 03:28:36;;;;;;;0.98;0.98;;;23.80;62.40;;;;;;5001657;28;20034;-42
2021/08/03 03:31:01;;;;;;;0.70;0.70;;;23.70;63.20;;;;;;5000911;28;20043;-40
2021/08/03 03:33:28;;;;;;;0.73;0.73;;;23.70;62.40;;;;;;5017943;28;20053;-42
2021/08/03 03:35:57;;;;;;;1.10;1.08;;;23.80;63.20;;;;;;4998272;28;20021;-38
2021/08/03 03:38:24;;;;;;;1.20;1.13;;;23.70;63.20;;;;;;5016587;28;20032;-39
2021/08/03 03:40:50;;;;;;;0.88;0.88;;;23.70;62.40;;;;;;4988162;28;20021;-40
2021/08/03 03:43:19;;;;;;;1.73;0.80;;;23.70;62.30;;;;;;5001482;28;20029;-43
2021/08/03 03:46:05;;;;;;;0.90;0.90;;;23.80;62.30;;;;;;4998944;28;20057;-43
2021/08/03 03:48:33;;;;;;;1.17;1.13;;;23.70;62.20;;;;;;5001506;28;20026;-43
2021/08/03 03:51:01;;;;;;;0.70;0.70;;;23.70;62.30;;;;;;4996957;28;20041;-39
2021/08/03 03:53:46;;;;;;;0.90;0.90;;;23.70;62.20;;;;;;4997175;28;20030;-42
2021/08/03 03:56:12;;;;;;;0.90;0.90;;;23.70;63.10;;;;;;5002962;28;20092;-36
2021/08/03 03:58:39;;;;;;;0.90;0.90;;;23.70;63.00;;;;;;4998722;28;20763;-42
2021/08/03 04:01:05;;;;;;;0.98;0.98;;;23.70;62.30;;;;;;4999417;28;20165;-40
2021/08/03 04:03:32;;;;;;;2.28;0.80;;;23.70;62.40;;;;;;4991030;28;20100;-42
2021/08/03 04:05:58;;;;;;;1.02;1.02;;;23.70;62.30;;;;;;4999396;28;20053;-34
2021/08/03 04:08:23;;;;;;;0.85;0.85;;;23.70;62.30;;;;;;4995587;28;20026;-40
2021/08/03 04:10:49;;;;;;;0.82;0.82;;;23.70;62.30;;;;;;4999422;28;20069;-39
2021/08/03 04:13:15;;;;;;;0.80;0.80;;;23.70;62.30;;;;;;5003967;28;20795;-42
2021/08/03 04:15:40;;;;;;;1.30;1.20;;;23.60;62.30;;;;;;5001531;28;20113;-42
2021/08/03 04:18:06;;;;;;;0.70;0.70;;;23.70;62.30;;;;;;4997074;28;20109;-40
2021/08/03 04:20:32;;;;;;;1.58;1.10;;;23.70;62.10;;;;;;4997903;28;20034;-41
2021/08/03 04:22:57;;;;;;;1.25;1.17;;;23.70;62.10;;;;;;4996994;28;20042;-43
2021/08/03 04:25:23;;;;;;;1.80;0.93;;;23.70;62.10;;;;;;4998372;28;20135;-39
2021/08/03 04:27:49;;;;;;;0.88;0.88;;;23.70;62.00;;;;;;4994754;28;20481;-35
2021/08/03 04:30:15;;;;;;;0.98;0.95;;;23.70;62.10;;;;;;4993082;28;20030;-40
2021/08/03 04:32:40;;;;;;;0.77;0.77;;;23.70;62.00;;;;;;5002606;28;20045;-40
2021/08/03 04:35:06;;;;;;;1.05;1.05;;;23.70;61.90;;;;;;4994049;28;20046;-40
2021/08/03 04:37:39;;;;;;;1.63;0.80;;;23.70;61.90;;;;;;4991353;28;20041;-40
2021/08/03 04:40:06;;;;;;;0.77;0.77;;;23.70;62.10;;;;;;4989119;28;20022;-41
2021/08/03 04:42:31;;;;;;;1.00;0.90;;;23.70;62.00;;;;;;5001596;28;20026;-41
2021/08/03 04:44:57;;;;;;;0.80;0.80;;;23.70;61.90;;;;;;4998345;28;20037;-41
2021/08/03 04:47:22;;;;;;;2.38;0.90;;;23.70;61.90;;;;;;4992149;28;20030;-40
2021/08/03 04:49:48;;;;;;;0.95;0.95;;;23.70;61.80;;;;;;4988798;28;20042;-42
2021/08/03 04:52:13;;;;;;;0.95;0.95;;;23.70;61.80;;;;;;4993867;28;20064;-42
2021/08/03 04:54:39;;;;;;;0.60;0.60;;;23.70;61.60;;;;;;4996065;28;20516;-40
2021/08/03 04:57:05;;;;;;;0.90;0.90;;;23.70;61.70;;;;;;4995644;28;20030;-36
2021/08/03 04:59:30;;;;;;;0.90;0.90;;;23.80;61.50;;;;;;4994560;28;20034;-43
2021/08/03 05:01:56;;;;;;;1.40;1.08;;;23.70;61.40;;;;;;4989423;28;20026;-40
2021/08/03 05:04:21;;;;;;;0.85;0.85;;;23.80;61.40;;;;;;4995807;28;20030;-40
2021/08/03 05:06:47;;;;;;;0.80;0.80;;;23.80;62.10;;;;;;5015657;28;20060;-39
2021/08/03 05:09:12;;;;;;;1.25;0.90;;;23.80;61.20;;;;;;5012936;28;20038;-36
2021/08/03 05:11:38;;;;;;;0.80;0.80;;;23.80;61.20;;;;;;5017826;28;20496;-31
2021/08/03 05:14:03;;;;;;;0.93;0.93;;;23.80;61.10;;;;;;5013333;28;20060;-38
2021/08/03 05:16:29;;;;;;;0.98;0.82;;;23.80;61.20;;;;;;5015094;28;20025;-39
2021/08/03 05:18:55;;;;;;;1.00;1.00;;;23.80;61.20;;;;;;5014021;28;20026;-40
2021/08/03 05:21:21;;;;;;;0.80;0.80;;;23.80;61.10;;;;;;5012105;28;20029;-41
2021/08/03 05:23:46;;;;;;;0.90;0.90;;;23.80;61.30;;;;;;5013177;28;20080;-41
2021/08/03 05:26:12;;;;;;;0.80;0.80;;;23.80;61.10;;;;;;4671199;28;9999963;-39
2021/08/03 05:28:38;;;;;;;1.45;1.10;;;23.80;61.30;;;;;;5012228;28;20102;-42
2021/08/03 05:31:03;;;;;;;1.00;1.00;;;23.70;61.30;;;;;;5009342;28;20041;-41
2021/08/03 05:33:29;;;;;;;0.88;0.88;;;23.70;61.20;;;;;;4993239;28;20026;-39
2021/08/03 05:35:54;;;;;;;1.10;1.00;;;23.70;61.30;;;;;;5011996;28;20148;-40
2021/08/03 05:38:20;;;;;;;0.90;0.90;;;23.70;61.30;;;;;;4998088;28;20507;-39
2021/08/03 05:40:46;;;;;;;0.75;0.75;;;23.70;61.30;;;;;;5008672;28;20567;-35
2021/08/03 05:43:12;;;;;;;1.42;1.35;;;23.70;61.20;;;;;;5013860;28;20018;-42
2021/08/03 05:45:37;;;;;;;1.10;1.00;;;23.60;61.40;;;;;;5017680;28;20034;-33
2021/08/03 05:48:03;;;;;;;0.70;0.70;;;23.60;61.30;;;;;;4991341;28;20088;-44
2021/08/03 05:50:29;;;;;;;0.80;0.80;;;23.60;61.30;;;;;;5012451;28;20041;-42
2021/08/03 05:52:54;;;;;;;0.70;0.70;;;23.60;61.30;;;;;;5018098;28;20128;-42
2021/08/03 05:55:20;;;;;;;0.60;0.60;;;23.60;61.40;;;;;;5015499;28;20111;-29
2021/08/03 05:57:45;;;;;;;0.90;0.90;;;23.50;61.70;;;;;;5015247;28;20411;-34
2021/08/03 06:00:11;;;;;;;0.80;0.80;;;23.50;61.80;;;;;;5019935;28;20072;-39
2021/08/03 06:02:37;;;;;;;0.80;0.80;;;23.60;61.70;;;;;;5015302;28;20128;-42
2021/08/03 06:05:03;;;;;;;0.90;0.90;;;23.70;61.10;;;;;;5008390;28;20492;-43
2021/08/03 06:07:28;;;;;;;1.13;0.90;;;23.70;61.30;;;;;;5008501;28;20075;-43
2021/08/03 06:09:57;;;;;;;1.02;1.02;;;23.60;61.10;;;;;;4989161;28;20042;-42
2021/08/03 06:12:25;;;;;;;2.22;1.23;;;23.70;61.00;;;;;;5009337;28;20029;-42
2021/08/03 06:14:53;;;;;;;1.00;1.00;;;23.70;60.70;;;;;;5008641;28;20040;-43
2021/08/03 06:17:19;;;;;;;0.95;0.95;;;23.80;60.60;;;;;;4992365;28;20463;-43
2021/08/03 06:19:48;;;;;;;0.80;0.80;;;23.70;60.50;;;;;;4987609;28;20132;-42
2021/08/03 06:22:14;;;;;;;1.00;0.90;;;23.70;61.30;;;;;;5005312;28;20044;-44
2021/08/03 06:24:41;;;;;;;1.55;0.93;;;23.70;61.10;;;;;;5005966;28;20034;-42
2021/08/03 06:27:12;;;;;;;1.00;1.00;;;23.60;61.00;;;;;;5006884;28;20045;-42
2021/08/03 06:29:38;;;;;;;2.13;1.00;;;23.70;61.10;;;;;;5005088;28;20048;-41
2021/08/03 06:32:04;;;;;;;0.90;0.90;;;23.70;60.90;;;;;;4988614;28;20417;-42
2021/08/03 06:34:30;;;;;;;2.80;0.90;;;23.70;60.90;;;;;;5006588;28;20052;-42
2021/08/03 06:36:55;;;;;;;1.00;1.00;;;23.70;61.10;;;;;;4990943;28;20037;-42
2021/08/03 06:39:22;;;;;;;0.80;0.80;;;23.70;61.30;;;;;;5005917;28;20030;-42
2021/08/03 06:41:48;;;;;;;1.63;1.48;;;23.70;61.50;;;;;;5009062;28;20060;-42
2021/08/03 06:44:23;;;;;;;1.42;1.10;;;23.70;61.30;;;;;;4990339;28;20080;-42
2021/08/03 06:46:52;;;;;;;1.00;0.98;;;23.70;61.80;;;;;;4990640;28;20153;-42
2021/08/03 06:49:18;;;;;;;1.00;1.00;;;23.70;61.60;;;;;;5008294;28;20129;-41
2021/08/03 06:51:43;;;;;;;1.27;1.17;;;23.60;61.60;;;;;;4989606;28;20040;-42
2021/08/03 06:54:13;;;;;;;1.17;1.00;;;23.60;61.90;;;;;;5008415;28;20037;-42
2021/08/03 06:56:49;;;;;;;1.10;1.00;;;23.60;62.10;;;;;;5007467;28;20033;-42
2021/08/03 06:59:25;;;;;;;1.90;0.90;;;23.60;61.80;;;;;;5005896;28;20107;-42
2021/08/03 07:02:05;;;;;;;0.77;0.77;;;23.60;61.80;;;;;;5006774;28;20037;-41
2021/08/03 07:04:46;;;;;;;1.10;1.10;;;23.60;62.10;;;;;;5006844;28;20164;-42
2021/08/03 07:07:12;;;;;;;1.20;1.10;;;23.60;62.10;;;;;;5008021;28;20488;-41
2021/08/03 07:09:42;;;;;;;0.90;0.90;;;23.60;62.20;;;;;;4984540;28;20124;-41
2021/08/03 07:12:08;;;;;;;1.52;1.23;;;23.60;62.10;;;;;;5007051;28;20057;-42
2021/08/03 07:14:34;;;;;;;1.15;1.10;;;23.60;62.10;;;;;;4992312;28;20037;-39
2021/08/03 07:17:00;;;;;;;1.00;1.00;;;23.50;62.00;;;;;;4996139;28;20050;-41
2021/08/03 07:19:25;;;;;;;0.85;0.80;;;23.50;62.30;;;;;;5001980;28;20516;-41
2021/08/03 07:21:51;;;;;;;0.93;0.93;;;23.50;62.30;;;;;;5021801;28;20039;-41
2021/08/03 07:24:17;;;;;;;0.90;0.90;;;23.50;62.10;;;;;;5019985;28;20047;-43
2021/08/03 07:26:42;;;;;;;1.27;1.17;;;23.40;62.20;;;;;;5020149;28;20467;-41
2021/08/03 07:29:08;;;;;;;1.10;1.10;;;23.20;60.90;;;;;;5009665;28;20072;-41
2021/08/03 07:31:34;;;;;;;1.35;1.25;;;23.10;59.70;;;;;;5014733;28;20029;-36
2021/08/03 07:34:00;;;;;;;1.60;1.50;;;22.90;58.80;;;;;;4993946;28;20121;-32
2021/08/03 07:36:25;;;;;;;2.40;1.55;;;22.80;58.70;;;;;;5010902;28;20021;-38
2021/08/03 07:38:54;;;;;;;1.63;1.52;;;22.70;58.40;;;;;;5015718;28;20404;-40
2021/08/03 07:41:20;;;;;;;2.45;1.65;;;22.70;58.30;;;;;;4999667;28;20112;-38
2021/08/03 07:43:46;;;;;;;1.98;1.77;;;22.70;57.60;;;;;;5014465;28;20042;-36
2021/08/03 07:46:12;;;;;;;1.70;1.60;;;22.60;57.80;;;;;;5022266;28;20078;-41
2021/08/03 07:48:37;;;;;;;1.70;1.60;;;22.60;57.90;;;;;;5018203;28;20032;-38
2021/08/03 07:51:04;;;;;;;1.65;1.55;;;22.40;58.50;;;;;;4984982;28;20037;-39
2021/08/03 07:53:30;;;;;;;1.60;1.50;;;22.20;58.40;;;;;;5001914;28;20476;-37
2021/08/03 07:55:56;;;;;;;3.00;1.73;;;22.20;58.70;;;;;;5017523;28;20036;-40
2021/08/03 07:58:22;;;;;;;8.85;1.52;;;22.50;58.20;;;;;;5005336;28;20029;-41
2021/08/03 08:00:47;;;;;;;1.77;1.35;;;22.40;58.30;;;;;;5018987;28;20033;-41
2021/08/03 08:03:13;;;;;;;1.58;1.48;;;22.30;58.70;;;;;;5014990;28;20034;-35
2021/08/03 08:05:38;;;;;;;1.70;1.60;;;22.30;58.60;;;;;;5022774;28;20060;-41
2021/08/03 08:08:05;;;;;;;1.83;1.67;;;22.20;58.60;;;;;;5022677;28;20033;-37
2021/08/03 08:10:31;;;;;;;1.63;1.52;;;22.10;58.60;;;;;;5016718;28;20034;-41
2021/08/03 08:12:57;;;;;;;1.98;1.70;;;22.10;58.90;;;;;;5020318;28;20041;-40
2021/08/03 08:15:22;;;;;;;1.65;1.52;;;22.10;59.00;;;;;;5015754;28;20365;-31
2021/08/03 08:17:48;;;;;;;2.17;1.30;;;22.20;58.70;;;;;;5012710;28;20164;-35
2021/08/03 08:20:13;;;;;;;1.60;1.45;;;22.10;58.80;;;;;;4995512;28;20030;-41
2021/08/03 08:22:43;;;;;;;1.30;1.30;;;22.10;58.90;;;;;;5023242;28;20029;-36
2021/08/03 08:25:10;;;;;;;1.33;1.15;;;22.00;59.00;;;;;;5013928;28;20487;-39
2021/08/03 08:27:39;;;;;;;1.30;1.23;;;21.90;59.30;;;;;;5026394;28;20109;-40
2021/08/03 08:30:06;;;;;;;2.30;1.60;;;21.90;59.60;;;;;;5030500;28;20037;-34
2021/08/03 08:32:31;;;;;;;2.00;1.77;;;21.80;59.90;;;;;;5029846;28;20384;-41
2021/08/03 08:34:57;;;;;;;1.75;1.65;;;21.80;60.00;;;;;;5030246;28;20500;-35
2021/08/03 08:37:23;;;;;;;2.13;1.63;;;21.70;60.00;;;;;;5029982;28;20095;-41
2021/08/03 08:39:48;;;;;;;1.98;1.80;;;21.70;60.40;;;;;;5027772;28;20261;-38
2021/08/03 08:42:19;;;;;;;2.88;1.50;;;21.70;61.50;;;;;;5028364;28;20028;-37
2021/08/03 08:44:48;;;;;;;2.50;1.70;;;21.60;61.10;;;;;;5030790;28;20021;-41
2021/08/03 08:47:17;;;;;;;2.55;1.50;;;21.60;61.70;;;;;;5012898;28;20024;-37
2021/08/03 08:49:47;;;;;;;2.15;1.60;;;21.60;62.90;;;;;;5013025;28;20494;-42
2021/08/03 08:52:15;;;;;;;3.20;1.80;;;21.60;62.50;;;;;;4680967;28;10000380;-42
2021/08/03 08:54:41;;;;;;;1.48;1.35;;;21.70;62.40;;;;;;5027014;28;20087;-41
2021/08/03 08:57:07;;;;;;;1.73;1.58;;;21.80;62.20;;;;;;5043748;28;20033;-41
2021/08/03 08:59:32;;;;;;;2.95;1.60;;;21.70;62.40;;;;;;5016869;28;20408;-42
2021/08/03 09:01:58;;;;;;;1.70;1.60;;;21.70;62.70;;;;;;5030123;28;20508;-42
2021/08/03 09:04:24;;;;;;;1.80;1.40;;;21.60;63.00;;;;;;5023836;28;20488;-42
2021/08/03 09:07:08;;;;;;;1.70;1.60;;;21.70;63.00;;;;;;5025223;28;20045;-42
2021/08/03 09:09:40;;;;;;;2.00;1.90;;;21.80;64.00;;;;;;4996600;28;20045;-41
2021/08/03 09:12:06;;;;;;;1.50;1.40;;;21.80;63.20;;;;;;5028584;28;20041;-41
2021/08/03 09:14:33;;;;;;;3.10;1.40;;;21.80;63.40;;;;;;5027682;28;20026;-37
2021/08/03 09:16:59;;;;;;;1.60;1.50;;;21.80;63.30;;;;;;5002836;28;20039;-39
2021/08/03 09:19:37;;;;;;;2.28;1.50;;;21.70;63.60;;;;;;5006341;28;20033;-37
2021/08/03 09:22:12;;;;;;;3.55;1.30;;;21.70;63.70;;;;;;5025277;28;20025;-47
2021/08/03 09:24:38;;;;;;;1.55;1.45;;;21.90;63.40;;;;;;5010418;28;20047;-36
2021/08/03 09:27:04;;;;;;;1.55;1.42;;;21.90;63.40;;;;;;5007362;28;20026;-33
2021/08/03 09:29:39;;;;;;;1.48;1.38;;;21.80;63.60;;;;;;5017006;28;20076;-41
2021/08/03 09:32:05;;;;;;;1.17;1.17;;;21.80;63.70;;;;;;4985584;28;20513;-42
2021/08/03 09:34:31;;;;;;;3.83;1.55;;;21.80;63.70;;;;;;5017807;28;20514;-42
2021/08/03 09:36:57;;;;;;;2.75;1.52;;;21.80;63.90;;;;;;5013709;28;20038;-42
2021/08/03 09:39:42;;;;;;;1.27;1.25;;;21.90;63.80;;;;;;5016046;28;20033;-42
2021/08/03 09:42:12;;;;;;;3.88;1.60;;;22.00;63.40;;;;;;5012200;28;20040;-42
2021/08/03 09:44:44;;;;;;;3.42;1.80;;;22.10;63.30;;;;;;5020483;28;20092;-42
2021/08/03 09:47:10;;;;;;;3.00;1.52;;;22.20;63.20;;;;;;5032520;28;20989;-42
2021/08/03 09:49:37;;;;;;;2.25;1.60;;;22.10;63.50;;;;;;5028307;28;20120;-42
2021/08/03 09:52:05;;;;;;;1.60;1.50;;;22.10;63.80;;;;;;5021367;28;20064;-42
2021/08/03 09:54:30;;;;;;;4.60;1.98;;;22.10;64.10;;;;;;5017505;28;20026;-42
2021/08/03 09:56:56;;;;;;;1.45;1.35;;;22.00;64.70;;;;;;4996629;28;20029;-41
2021/08/03 09:59:32;;;;;;;3.58;2.08;;;22.00;64.30;;;;;;5021570;28;20036;-42
2021/08/03 10:01:58;;;;;;;1.48;1.38;;;22.00;64.30;;;;;;5015071;28;20036;-41
2021/08/03 10:04:26;;;;;;;1.85;1.70;;;22.10;64.20;;;;;;5003633;28;20029;-42
2021/08/03 10:06:51;;;;;;;3.28;1.60;;;22.20;64.50;;;;;;5031190;28;20060;-42
2021/08/03 10:09:18;;;;;;;4.15;1.08;;;22.20;63.20;;;;;;5004425;28;20022;-42
2021/08/03 10:11:44;;;;;;;1.95;1.58;;;22.20;63.10;;;;;;5025151;28;20540;-42
2021/08/03 10:14:10;;;;;;;1.60;1.50;;;22.30;63.20;;;;;;5027958;28;20171;-41
2021/08/03 10:16:35;;;;;;;4.75;1.60;;;22.20;64.30;;;;;;5003924;28;20042;-40
2021/08/03 10:19:01;;;;;;;1.85;1.63;;;22.20;63.70;;;;;;5018404;28;20036;-44
2021/08/03 10:21:32;;;;;;;1.60;1.50;;;22.20;63.80;;;;;;4992330;28;20041;-44
2021/08/03 10:24:20;;;;;;;1.58;1.48;;;22.10;64.00;;;;;;5010571;28;20531;-41
2021/08/03 10:27:15;;;;;;;4.85;1.52;;;22.10;64.00;;;;;;5023594;28;20506;-38
2021/08/03 10:29:54;;;;;;;1.60;1.50;;;22.10;64.20;;;;;;5020175;28;20046;-41
2021/08/03 10:32:39;;;;;;;1.88;1.27;;;22.30;63.60;;;;;;5024449;28;20036;-39
2021/08/03 10:35:15;;;;;;;2.03;1.65;;;22.40;63.50;;;;;;5019012;28;20030;-39
2021/08/03 10:37:56;;;;;;;2.58;1.50;;;22.40;63.50;;;;;;5023515;28;20037;-29
2021/08/03 10:40:48;;;;;;;1.70;1.60;;;22.40;63.30;;;;;;5018687;28;20504;-38
2021/08/03 10:43:17;;;;;;;3.45;1.83;;;22.40;63.10;;;;;;5018967;28;20049;-41
2021/08/03 10:45:42;;;;;;;2.25;1.90;;;22.20;63.30;;;;;;5020030;28;20034;-37
2021/08/03 10:48:08;;;;;;;2.13;1.50;;;22.30;63.00;;;;;;5011571;28;20033;-41
2021/08/03 10:50:34;;;;;;;1.95;1.70;;;22.30;63.10;;;;;;5032957;28;20455;-46
2021/08/03 10:53:02;;;;;;;2.55;2.35;;;22.30;64.00;;;;;;5029229;28;20072;-42
2021/08/03 10:55:34;;;;;;;2.30;2.20;;;22.40;63.50;;;;;;5027035;28;20040;-42
2021/08/03 10:58:08;;;;;;;3.05;2.05;;;22.40;63.50;;;;;;5025966;28;20029;-42
2021/08/03 11:00:53;;;;;;;2.20;2.00;;;22.30;63.30;;;;;;5017207;28;20038;-42
2021/08/03 11:03:34;;;;;;;2.75;2.60;;;22.30;63.10;;;;;;5010448;28;20043;-43
2021/08/03 11:06:06;;;;;;;2.63;2.42;;;22.30;64.10;;;;;;5022316;28;20166;-42
2021/08/03 11:08:45;;;;;;;2.30;2.20;;;22.40;63.50;;;;;;5040594;28;20029;-42
2021/08/03 11:11:29;;;;;;;4.38;2.35;;;22.40;64.10;;;;;;5032003;28;20041;-42
2021/08/03 11:13:56;;;;;;;5.15;2.10;;;22.40;63.40;;;;;;5013458;28;20120;-39
2021/08/03 11:16:22;;;;;;;4.63;1.95;;;22.40;63.90;;;;;;5017020;28;20073;-42
2021/08/03 11:18:55;;;;;;;3.13;2.55;;;22.50;64.40;;;;;;5025945;28;20195;-44
2021/08/03 11:21:24;;;;;;;2.80;2.47;;;22.40;64.10;;;;;;5015650;28;20030;-37
2021/08/03 11:23:56;;;;;;;5.50;2.35;;;22.50;63.60;;;;;;5022154;28;20060;-37
2021/08/03 11:26:22;;;;;;;3.15;2.22;;;22.60;65.00;;;;;;5027893;28;20021;-38
2021/08/03 11:29:00;;;;;;;2.58;2.30;;;22.50;65.00;;;;;;5028138;28;20091;-41
2021/08/03 11:31:55;;;;;;;2.70;1.95;;;22.40;64.80;;;;;;5029904;28;20047;-42
2021/08/03 11:34:28;;;;;;;2.22;2.03;;;22.40;64.40;;;;;;4999278;28;20070;-41
2021/08/03 11:36:57;;;;;;;2.70;2.08;;;22.40;63.90;;;;;;5037831;28;20037;-42
2021/08/03 11:39:28;;;;;;;1.63;1.52;;;22.50;63.30;;;;;;5013251;28;20043;-42
2021/08/03 11:41:53;;;;;;;1.98;1.88;;;22.50;63.40;;;;;;5032659;28;20079;-41
2021/08/03 11:44:19;;;;;;;1.70;1.60;;;22.50;63.40;;;;;;5026392;28;20033;-42
2021/08/03 11:46:51;;;;;;;1.90;1.80;;;22.50;63.30;;;;;;5018327;28;20041;-42
2021/08/03 11:49:17;;;;;;;1.80;1.70;;;22.50;63.10;;;;;;5020785;28;20021;-41
2021/08/03 11:51:46;;;;;;;1.80;1.70;;;22.50;62.70;;;;;;5033750;28;20403;-42
2021/08/03 11:54:12;;;;;;;2.70;1.83;;;22.60;62.80;;;;;;5019287;28;20034;-41
2021/08/03 11:56:37;;;;;;;1.50;1.40;;;22.50;62.50;;;;;;5031428;28;20529;-41
2021/08/03 11:59:03;;;;;;;1.80;1.70;;;22.50;62.40;;;;;;5027054;28;20029;-42
2021/08/03 12:01:50;;;;;;;1.60;1.50;;;22.50;62.20;;;;;;5017609;28;20029;-42
2021/08/03 12:04:16;;;;;;;1.70;1.60;;;22.60;61.70;;;;;;5025905;28;20545;-41
2021/08/03 12:06:42;;;;;;;1.27;1.25;;;22.60;62.10;;;;;;5030263;28;20049;-41
2021/08/03 12:09:09;;;;;;;1.50;1.40;;;22.60;61.90;;;;;;5029225;28;20526;-41
2021/08/03 12:11:35;;;;;;;1.40;1.23;;;22.50;61.70;;;;;;5030130;28;20033;-41
2021/08/03 12:14:11;;;;;;;1.85;1.35;;;22.60;61.50;;;;;;5023426;28;20029;-37
2021/08/03 12:16:36;;;;;;;1.30;1.20;;;22.60;61.40;;;;;;4979638;28;20511;-42
2021/08/03 12:19:02;;;;;;;1.67;1.58;;;22.60;61.40;;;;;;5004698;28;20021;-39
2021/08/03 12:21:35;;;;;;;1.60;1.50;;;22.60;61.30;;;;;;5013362;28;20515;-38
2021/08/03 12:24:07;;;;;;;1.25;1.25;;;22.70;61.30;;;;;;5001540;28;20075;-40
2021/08/03 12:26:33;;;;;;;1.40;1.30;;;22.60;61.30;;;;;;5024073;28;20531;-41
2021/08/03 12:28:59;;;;;;;1.35;1.25;;;22.70;60.70;;;;;;5013869;28;20029;-29
2021/08/03 12:31:30;;;;;;;1.13;1.10;;;22.70;60.50;;;;;;5003657;28;20049;-38
2021/08/03 12:34:08;;;;;;;1.27;1.27;;;22.60;61.70;;;;;;5022591;28;20036;-37
2021/08/03 12:36:46;;;;;;;2.08;1.80;;;22.70;61.40;;;;;;4999900;28;20045;-41
2021/08/03 12:39:19;;;;;;;1.50;1.40;;;22.70;61.60;;;;;;5023732;28;20505;-42
2021/08/03 12:45:14;;;;;;;1.50;1.40;;;22.80;61.00;;;;;;5008781;28;20754;-40
2021/08/03 12:47:57;;;;;;;1.52;1.42;;;22.80;60.50;;;;;;5034501;28;20051;-43
2021/08/03 12:50:23;;;;;;;1.30;1.17;;;22.70;60.50;;;;;;5026001;28;20041;-40
2021/08/03 12:52:57;;;;;;;1.45;1.33;;;22.70;61.70;;;;;;5024419;28;20533;-41
2021/08/03 12:55:33;;;;;;;1.60;1.50;;;22.70;60.60;;;;;;5005858;28;20034;-42
2021/08/03 12:57:59;;;;;;;2.10;1.02;;;22.70;60.90;;;;;;5024772;28;20116;-41